sensor_id;sensor_type;location;lat;lon;timestamp;pressure;altitude;pressure_sealevel;temperature
6550;BMP280;15142;48.888;9.134;2022-12-26T00:02:23;98035.16;;;11.73
6550;BMP280;15142;48.888;9.134;2022-12-26T00:04:49;98033.09;;;11.75
6550;BMP280;15142;48.888;9.134;2022-12-26T00:07:17;98038.59;;;11.82
6550;BMP280;15142;48.888;9.134;2022-12-26T00:09:44;98043.78;;;11.77
6550;BMP280;15142;48.888;9.134;2022-12-26T00:12:11;98052.16;;;11.82
6550;BMP280;15142;48.888;9.134;2022-12-26T00:14:38;98054.38;;;11.89
6550;BMP280;15142;48.888;9.134;2022-12-26T00:17:04;98051.31;;;11.87
6550;BMP280;15142;48.888;9.134;2022-12-26T00:19:31;98059.06;;;11.82
6550;BMP280;15142;48.888;9.134;2022-12-26T00:21:58;98054.13;;;11.85
6550;BMP280;15142;48.888;9.134;2022-12-26T00:24:25;98045.66;;;11.90
6550;BMP280;15142;48.888;9.134;2022-12-26T00:26:52;98050.69;;;11.95
6550;BMP280;15142;48.888;9.134;2022-12-26T00:29:18;98043.53;;;11.92
6550;BMP280;15142;48.888;9.134;2022-12-26T00:31:47;98049.63;;;11.96
6550;BMP280;15142;48.888;9.134;2022-12-26T00:34:15;98058.91;;;12.10
6550;BMP280;15142;48.888;9.134;2022-12-26T00:36:41;98058.13;;;12.09
6550;BMP280;15142;48.888;9.134;2022-12-26T00:39:08;98056.59;;;12.08
6550;BMP280;15142;48.888;9.134;2022-12-26T00:41:36;98065.09;;;12.04
6550;BMP280;15142;48.888;9.134;2022-12-26T00:44:02;98056.75;;;11.98
6550;BMP280;15142;48.888;9.134;2022-12-26T00:46:29;98052.06;;;11.87
6550;BMP280;15142;48.888;9.134;2022-12-26T00:48:56;98042.31;;;11.76
6550;BMP280;15142;48.888;9.134;2022-12-26T00:51:23;98037.50;;;11.69
6550;BMP280;15142;48.888;9.134;2022-12-26T00:53:49;98047.06;;;11.64
6550;BMP280;15142;48.888;9.134;2022-12-26T00:56:16;98059.66;;;11.61
6550;BMP280;15142;48.888;9.134;2022-12-26T00:58:44;98056.41;;;11.55
6550;BMP280;15142;48.888;9.134;2022-12-26T01:01:14;98065.56;;;11.56
6550;BMP280;15142;48.888;9.134;2022-12-26T01:03:42;98063.44;;;11.45
6550;BMP280;15142;48.888;9.134;2022-12-26T01:06:09;98060.25;;;11.35
6550;BMP280;15142;48.888;9.134;2022-12-26T01:08:36;98045.53;;;11.27
6550;BMP280;15142;48.888;9.134;2022-12-26T01:11:04;98036.69;;;11.19
6550;BMP280;15142;48.888;9.134;2022-12-26T01:13:32;98042.47;;;11.07
6550;BMP280;15142;48.888;9.134;2022-12-26T01:16:01;98048.50;;;10.92
6550;BMP280;15142;48.888;9.134;2022-12-26T01:18:28;98059.63;;;10.78
6550;BMP280;15142;48.888;9.134;2022-12-26T01:20:58;98050.00;;;10.70
6550;BMP280;15142;48.888;9.134;2022-12-26T01:23:25;98059.38;;;10.79
6550;BMP280;15142;48.888;9.134;2022-12-26T01:25:51;98053.84;;;10.73
6550;BMP280;15142;48.888;9.134;2022-12-26T01:28:18;98050.59;;;10.62
6550;BMP280;15142;48.888;9.134;2022-12-26T01:30:45;98058.59;;;10.56
6550;BMP280;15142;48.888;9.134;2022-12-26T01:33:13;98055.53;;;10.59
6550;BMP280;15142;48.888;9.134;2022-12-26T01:35:48;98053.97;;;10.58
6550;BMP280;15142;48.888;9.134;2022-12-26T01:38:15;98044.91;;;10.70
6550;BMP280;15142;48.888;9.134;2022-12-26T01:40:42;98049.03;;;10.66
6550;BMP280;15142;48.888;9.134;2022-12-26T01:43:10;98050.84;;;10.66
6550;BMP280;15142;48.888;9.134;2022-12-26T01:45:37;98055.41;;;10.69
6550;BMP280;15142;48.888;9.134;2022-12-26T01:48:12;98045.69;;;10.71
6550;BMP280;15142;48.888;9.134;2022-12-26T01:50:46;98054.94;;;10.67
6550;BMP280;15142;48.888;9.134;2022-12-26T01:53:18;98062.09;;;10.65
6550;BMP280;15142;48.888;9.134;2022-12-26T01:55:49;98056.59;;;10.76
6550;BMP280;15142;48.888;9.134;2022-12-26T01:58:19;98049.59;;;10.86
6550;BMP280;15142;48.888;9.134;2022-12-26T02:00:47;98056.44;;;10.91
6550;BMP280;15142;48.888;9.134;2022-12-26T02:03:14;98056.63;;;10.94
6550;BMP280;15142;48.888;9.134;2022-12-26T02:05:58;98056.44;;;10.91
6550;BMP280;15142;48.888;9.134;2022-12-26T02:08:29;98064.50;;;11.03
6550;BMP280;15142;48.888;9.134;2022-12-26T02:11:04;98066.97;;;11.07
6550;BMP280;15142;48.888;9.134;2022-12-26T02:13:33;98056.41;;;11.14
6550;BMP280;15142;48.888;9.134;2022-12-26T02:16:01;98054.16;;;11.12
6550;BMP280;15142;48.888;9.134;2022-12-26T02:18:27;98053.19;;;11.08
6550;BMP280;15142;48.888;9.134;2022-12-26T02:21:03;98055.38;;;11.15
6550;BMP280;15142;48.888;9.134;2022-12-26T02:23:54;98055.94;;;11.12
6550;BMP280;15142;48.888;9.134;2022-12-26T02:27:01;98053.44;;;11.07
6550;BMP280;15142;48.888;9.134;2022-12-26T02:30:05;98060.88;;;11.04
6550;BMP280;15142;48.888;9.134;2022-12-26T02:33:03;98048.38;;;11.02
6550;BMP280;15142;48.888;9.134;2022-12-26T02:36:00;98055.56;;;11.00
6550;BMP280;15142;48.888;9.134;2022-12-26T02:38:36;98069.50;;;11.07
6550;BMP280;15142;48.888;9.134;2022-12-26T02:41:17;98071.16;;;10.99
6550;BMP280;15142;48.888;9.134;2022-12-26T02:43:55;98081.16;;;10.95
6550;BMP280;15142;48.888;9.134;2022-12-26T02:46:31;98072.81;;;11.08
6550;BMP280;15142;48.888;9.134;2022-12-26T02:49:26;98068.16;;;11.15
6550;BMP280;15142;48.888;9.134;2022-12-26T02:52:21;98063.81;;;11.15
6550;BMP280;15142;48.888;9.134;2022-12-26T02:55:13;98076.72;;;11.24
6550;BMP280;15142;48.888;9.134;2022-12-26T02:58:02;98064.25;;;11.22
6550;BMP280;15142;48.888;9.134;2022-12-26T03:00:49;98068.84;;;11.20
6550;BMP280;15142;48.888;9.134;2022-12-26T03:03:37;98074.50;;;11.17
6550;BMP280;15142;48.888;9.134;2022-12-26T03:06:26;98087.38;;;11.31
6550;BMP280;15142;48.888;9.134;2022-12-26T03:09:15;98079.59;;;11.40
6550;BMP280;15142;48.888;9.134;2022-12-26T03:12:05;98075.03;;;11.38
6550;BMP280;15142;48.888;9.134;2022-12-26T03:14:53;98078.41;;;11.51
6550;BMP280;15142;48.888;9.134;2022-12-26T03:17:26;98065.13;;;11.54
6550;BMP280;15142;48.888;9.134;2022-12-26T03:19:55;98067.19;;;11.52
6550;BMP280;15142;48.888;9.134;2022-12-26T03:22:33;98066.38;;;11.52
6550;BMP280;15142;48.888;9.134;2022-12-26T03:25:04;98059.91;;;11.41
6550;BMP280;15142;48.888;9.134;2022-12-26T03:27:49;98056.03;;;11.43
6550;BMP280;15142;48.888;9.134;2022-12-26T03:30:16;98052.94;;;11.46
6550;BMP280;15142;48.888;9.134;2022-12-26T03:33:00;98045.81;;;11.43
6550;BMP280;15142;48.888;9.134;2022-12-26T03:35:30;98038.63;;;11.45
6550;BMP280;15142;48.888;9.134;2022-12-26T03:38:00;98041.31;;;11.36
6550;BMP280;15142;48.888;9.134;2022-12-26T03:40:39;98036.06;;;11.27
6550;BMP280;15142;48.888;9.134;2022-12-26T03:43:45;98044.44;;;11.33
6550;BMP280;15142;48.888;9.134;2022-12-26T03:46:38;98040.00;;;11.38
6550;BMP280;15142;48.888;9.134;2022-12-26T03:49:27;98031.66;;;11.33
6550;BMP280;15142;48.888;9.134;2022-12-26T03:52:17;98042.03;;;11.41
6550;BMP280;15142;48.888;9.134;2022-12-26T03:55:17;98041.69;;;11.47
6550;BMP280;15142;48.888;9.134;2022-12-26T03:58:06;98043.13;;;11.53
6550;BMP280;15142;48.888;9.134;2022-12-26T04:00:55;98042.00;;;11.59
6550;BMP280;15142;48.888;9.134;2022-12-26T04:03:43;98035.88;;;11.60
6550;BMP280;15142;48.888;9.134;2022-12-26T04:06:32;98043.81;;;11.59
6550;BMP280;15142;48.888;9.134;2022-12-26T04:09:24;98042.09;;;11.54
6550;BMP280;15142;48.888;9.134;2022-12-26T04:12:15;98052.09;;;11.69
6550;BMP280;15142;48.888;9.134;2022-12-26T04:15:05;98059.38;;;11.94
6550;BMP280;15142;48.888;9.134;2022-12-26T04:18:01;98069.47;;;12.03
6550;BMP280;15142;48.888;9.134;2022-12-26T04:21:04;98062.88;;;11.97
6550;BMP280;15142;48.888;9.134;2022-12-26T04:23:39;98063.47;;;11.95
6550;BMP280;15142;48.888;9.134;2022-12-26T04:26:31;98077.16;;;12.03
6550;BMP280;15142;48.888;9.134;2022-12-26T04:29:19;98055.19;;;12.02
6550;BMP280;15142;48.888;9.134;2022-12-26T04:32:09;98064.78;;;11.92
6550;BMP280;15142;48.888;9.134;2022-12-26T04:35:00;98055.94;;;11.85
6550;BMP280;15142;48.888;9.134;2022-12-26T04:37:49;98060.00;;;11.86
6550;BMP280;15142;48.888;9.134;2022-12-26T04:40:37;98072.72;;;11.91
6550;BMP280;15142;48.888;9.134;2022-12-26T04:43:24;98075.28;;;11.91
6550;BMP280;15142;48.888;9.134;2022-12-26T04:46:12;98075.41;;;11.99
6550;BMP280;15142;48.888;9.134;2022-12-26T04:48:41;98069.78;;;12.02
6550;BMP280;15142;48.888;9.134;2022-12-26T04:51:26;98059.38;;;11.94
6550;BMP280;15142;48.888;9.134;2022-12-26T04:53:53;98048.00;;;11.86
6550;BMP280;15142;48.888;9.134;2022-12-26T04:56:21;98048.63;;;11.78
6550;BMP280;15142;48.888;9.134;2022-12-26T04:58:49;98040.13;;;11.83
6550;BMP280;15142;48.888;9.134;2022-12-26T05:01:17;98044.66;;;11.86
6550;BMP280;15142;48.888;9.134;2022-12-26T05:04:10;98040.13;;;11.83
6550;BMP280;15142;48.888;9.134;2022-12-26T05:06:55;98038.44;;;11.92
6550;BMP280;15142;48.888;9.134;2022-12-26T05:09:40;98055.78;;;12.26
6550;BMP280;15142;48.888;9.134;2022-12-26T05:12:08;98047.06;;;12.27
6550;BMP280;15142;48.888;9.134;2022-12-26T05:14:35;98053.88;;;12.18
6550;BMP280;15142;48.888;9.134;2022-12-26T05:17:04;98044.28;;;12.10
6550;BMP280;15142;48.888;9.134;2022-12-26T05:19:49;98050.88;;;11.98
6550;BMP280;15142;48.888;9.134;2022-12-26T05:22:36;98047.41;;;12.07
6550;BMP280;15142;48.888;9.134;2022-12-26T05:25:24;98049.13;;;12.12
6550;BMP280;15142;48.888;9.134;2022-12-26T05:28:09;98047.81;;;12.14
6550;BMP280;15142;48.888;9.134;2022-12-26T05:30:53;98052.25;;;12.09
6550;BMP280;15142;48.888;9.134;2022-12-26T05:33:22;98059.69;;;12.05
6550;BMP280;15142;48.888;9.134;2022-12-26T05:36:06;98069.66;;;12.07
6550;BMP280;15142;48.888;9.134;2022-12-26T05:38:33;98065.88;;;12.04
6550;BMP280;15142;48.888;9.134;2022-12-26T05:41:00;98063.88;;;12.01
6550;BMP280;15142;48.888;9.134;2022-12-26T05:43:27;98064.44;;;11.98
6550;BMP280;15142;48.888;9.134;2022-12-26T05:45:53;98072.72;;;11.91
6550;BMP280;15142;48.888;9.134;2022-12-26T05:48:21;98073.03;;;11.89
6550;BMP280;15142;48.888;9.134;2022-12-26T05:50:48;98071.78;;;11.87
6550;BMP280;15142;48.888;9.134;2022-12-26T05:53:14;98070.81;;;11.83
6550;BMP280;15142;48.888;9.134;2022-12-26T05:55:42;98069.28;;;11.82
6550;BMP280;15142;48.888;9.134;2022-12-26T05:58:08;98064.59;;;11.89
6550;BMP280;15142;48.888;9.134;2022-12-26T06:00:35;98071.50;;;11.88
6550;BMP280;15142;48.888;9.134;2022-12-26T06:03:02;98058.88;;;11.78
6550;BMP280;15142;48.888;9.134;2022-12-26T06:05:30;98066.59;;;11.73
6550;BMP280;15142;48.888;9.134;2022-12-26T06:07:56;98081.31;;;11.63
6550;BMP280;15142;48.888;9.134;2022-12-26T06:10:23;98082.66;;;11.61
6550;BMP280;15142;48.888;9.134;2022-12-26T06:12:51;98084.38;;;11.65
6550;BMP280;15142;48.888;9.134;2022-12-26T06:15:18;98081.69;;;11.75
6550;BMP280;15142;48.888;9.134;2022-12-26T06:17:44;98070.84;;;11.78
6550;BMP280;15142;48.888;9.134;2022-12-26T06:20:11;98066.25;;;11.80
6550;BMP280;15142;48.888;9.134;2022-12-26T06:22:39;98065.72;;;11.83
6550;BMP280;15142;48.888;9.134;2022-12-26T06:25:06;98064.97;;;11.82
6550;BMP280;15142;48.888;9.134;2022-12-26T06:27:34;98074.81;;;11.89
6550;BMP280;15142;48.888;9.134;2022-12-26T06:30:00;98062.78;;;11.89
6550;BMP280;15142;48.888;9.134;2022-12-26T06:32:27;98067.97;;;11.84
6550;BMP280;15142;48.888;9.134;2022-12-26T06:34:54;98063.91;;;11.83
6550;BMP280;15142;48.888;9.134;2022-12-26T06:37:21;98061.34;;;11.83
6550;BMP280;15142;48.888;9.134;2022-12-26T06:39:49;98065.41;;;11.84
6550;BMP280;15142;48.888;9.134;2022-12-26T06:42:16;98063.16;;;11.83
6550;BMP280;15142;48.888;9.134;2022-12-26T06:44:43;98048.56;;;11.83
6550;BMP280;15142;48.888;9.134;2022-12-26T06:47:09;98064.16;;;11.82
6550;BMP280;15142;48.888;9.134;2022-12-26T06:49:36;98070.25;;;11.86
6550;BMP280;15142;48.888;9.134;2022-12-26T06:52:03;98073.72;;;11.95
6550;BMP280;15142;48.888;9.134;2022-12-26T06:54:29;98070.47;;;11.89
6550;BMP280;15142;48.888;9.134;2022-12-26T06:56:57;98069.72;;;11.89
6550;BMP280;15142;48.888;9.134;2022-12-26T06:59:24;98075.34;;;11.86
6550;BMP280;15142;48.888;9.134;2022-12-26T07:01:50;98080.06;;;11.79
6550;BMP280;15142;48.888;9.134;2022-12-26T07:04:17;98081.69;;;11.75
6550;BMP280;15142;48.888;9.134;2022-12-26T07:06:43;98087.91;;;11.69
6550;BMP280;15142;48.888;9.134;2022-12-26T07:09:12;98084.03;;;11.53
6550;BMP280;15142;48.888;9.134;2022-12-26T07:11:40;98092.78;;;11.47
6550;BMP280;15142;48.888;9.134;2022-12-26T07:14:08;98097.06;;;11.52
6550;BMP280;15142;48.888;9.134;2022-12-26T07:16:35;98105.03;;;11.50
6550;BMP280;15142;48.888;9.134;2022-12-26T07:19:02;98092.50;;;11.49
6550;BMP280;15142;48.888;9.134;2022-12-26T07:21:29;98080.06;;;11.42
6550;BMP280;15142;48.888;9.134;2022-12-26T07:23:56;98076.69;;;11.29
6550;BMP280;15142;48.888;9.134;2022-12-26T07:26:24;98081.63;;;11.20
6550;BMP280;15142;48.888;9.134;2022-12-26T07:28:52;98096.31;;;11.10
6550;BMP280;15142;48.888;9.134;2022-12-26T07:31:20;98103.56;;;11.03
6550;BMP280;15142;48.888;9.134;2022-12-26T07:33:46;98103.56;;;11.03
6550;BMP280;15142;48.888;9.134;2022-12-26T07:36:13;98095.91;;;10.98
6550;BMP280;15142;48.888;9.134;2022-12-26T07:38:40;98113.38;;;10.91
6550;BMP280;15142;48.888;9.134;2022-12-26T07:41:06;98105.28;;;10.84
6550;BMP280;15142;48.888;9.134;2022-12-26T07:43:47;98103.28;;;10.81
6550;BMP280;15142;48.888;9.134;2022-12-26T07:46:13;98106.63;;;10.77
6550;BMP280;15142;48.888;9.134;2022-12-26T07:48:42;98128.84;;;10.77
6550;BMP280;15142;48.888;9.134;2022-12-26T07:51:08;98118.91;;;10.75
6550;BMP280;15142;48.888;9.134;2022-12-26T07:53:35;98109.22;;;10.72
6550;BMP280;15142;48.888;9.134;2022-12-26T07:56:01;98118.66;;;10.72
6550;BMP280;15142;48.888;9.134;2022-12-26T07:58:28;98109.00;;;10.69
6550;BMP280;15142;48.888;9.134;2022-12-26T08:00:55;98126.31;;;10.72
6550;BMP280;15142;48.888;9.134;2022-12-26T08:03:21;98120.97;;;10.73
6550;BMP280;15142;48.888;9.134;2022-12-26T08:05:50;98121.34;;;10.85
6550;BMP280;15142;48.888;9.134;2022-12-26T08:08:16;98121.94;;;11.00
6550;BMP280;15142;48.888;9.134;2022-12-26T08:10:43;98124.44;;;11.05
6550;BMP280;15142;48.888;9.134;2022-12-26T08:13:09;98122.41;;;11.07
6550;BMP280;15142;48.888;9.134;2022-12-26T08:15:37;98126.31;;;11.23
6550;BMP280;15142;48.888;9.134;2022-12-26T08:18:04;98134.47;;;11.25
6550;BMP280;15142;48.888;9.134;2022-12-26T08:20:30;98132.19;;;11.23
6550;BMP280;15142;48.888;9.134;2022-12-26T08:22:58;98131.22;;;11.19
6550;BMP280;15142;48.888;9.134;2022-12-26T08:25:25;98127.41;;;11.17
6550;BMP280;15142;48.888;9.134;2022-12-26T08:27:52;98126.41;;;11.13
6550;BMP280;15142;48.888;9.134;2022-12-26T08:30:18;98135.91;;;11.07
6550;BMP280;15142;48.888;9.134;2022-12-26T08:32:45;98146.41;;;11.06
6550;BMP280;15142;48.888;9.134;2022-12-26T08:35:11;98159.47;;;11.05
6550;BMP280;15142;48.888;9.134;2022-12-26T08:37:38;98166.34;;;11.04
6550;BMP280;15142;48.888;9.134;2022-12-26T08:40:07;98176.03;;;11.07
6550;BMP280;15142;48.888;9.134;2022-12-26T08:42:33;98177.34;;;11.05
6550;BMP280;15142;48.888;9.134;2022-12-26T08:45:00;98189.13;;;11.01
6550;BMP280;15142;48.888;9.134;2022-12-26T08:47:27;98193.72;;;10.99
6550;BMP280;15142;48.888;9.134;2022-12-26T08:49:53;98205.28;;;10.91
6550;BMP280;15142;48.888;9.134;2022-12-26T08:52:20;98212.81;;;10.78
6550;BMP280;15142;48.888;9.134;2022-12-26T08:54:46;98219.31;;;10.61
6550;BMP280;15142;48.888;9.134;2022-12-26T08:57:14;98240.03;;;10.54
6550;BMP280;15142;48.888;9.134;2022-12-26T08:59:41;98242.94;;;10.43
6550;BMP280;15142;48.888;9.134;2022-12-26T09:02:08;98246.09;;;10.25
6550;BMP280;15142;48.888;9.134;2022-12-26T09:04:35;98251.00;;;10.12
6550;BMP280;15142;48.888;9.134;2022-12-26T09:07:02;98258.44;;;10.04
6550;BMP280;15142;48.888;9.134;2022-12-26T09:09:28;98253.59;;;10.02
6550;BMP280;15142;48.888;9.134;2022-12-26T09:11:55;98252.84;;;10.02
6550;BMP280;15142;48.888;9.134;2022-12-26T09:14:23;98252.31;;;10.00
6550;BMP280;15142;48.888;9.134;2022-12-26T09:16:49;98251.84;;;10.03
6550;BMP280;15142;48.888;9.134;2022-12-26T09:19:19;98256.94;;;10.03
6550;BMP280;15142;48.888;9.134;2022-12-26T09:21:47;98269.94;;;10.01
6550;BMP280;15142;48.888;9.134;2022-12-26T09:24:16;98263.81;;;9.97
6550;BMP280;15142;48.888;9.134;2022-12-26T09:26:43;98277.81;;;10.00
6550;BMP280;15142;48.888;9.134;2022-12-26T09:29:10;98285.50;;;9.90
6550;BMP280;15142;48.888;9.134;2022-12-26T09:31:38;98289.06;;;9.89
6550;BMP280;15142;48.888;9.134;2022-12-26T09:34:06;98292.16;;;9.86
6550;BMP280;15142;48.888;9.134;2022-12-26T09:36:37;98290.63;;;9.85
6550;BMP280;15142;48.888;9.134;2022-12-26T09:39:04;98290.13;;;9.88
6550;BMP280;15142;48.888;9.134;2022-12-26T09:41:43;98301.56;;;9.90
6550;BMP280;15142;48.888;9.134;2022-12-26T09:44:16;98315.81;;;10.01
6550;BMP280;15142;48.888;9.134;2022-12-26T09:46:53;98318.88;;;10.03
6550;BMP280;15142;48.888;9.134;2022-12-26T09:49:24;98322.44;;;10.07
6550;BMP280;15142;48.888;9.134;2022-12-26T09:51:55;98318.09;;;10.08
6550;BMP280;15142;48.888;9.134;2022-12-26T09:54:28;98316.81;;;10.05
6550;BMP280;15142;48.888;9.134;2022-12-26T09:56:56;98318.06;;;10.13
6550;BMP280;15142;48.888;9.134;2022-12-26T09:59:24;98327.72;;;10.20
6550;BMP280;15142;48.888;9.134;2022-12-26T10:01:53;98333.78;;;10.39
6550;BMP280;15142;48.888;9.134;2022-12-26T10:04:22;98324.81;;;10.47
6550;BMP280;15142;48.888;9.134;2022-12-26T10:06:55;98341.41;;;10.49
6550;BMP280;15142;48.888;9.134;2022-12-26T10:09:50;98333.69;;;10.54
6550;BMP280;15142;48.888;9.134;2022-12-26T10:12:35;98320.16;;;10.53
6550;BMP280;15142;48.888;9.134;2022-12-26T10:15:11;98293.97;;;10.43
6550;BMP280;15142;48.888;9.134;2022-12-26T10:17:43;98307.97;;;10.46
6550;BMP280;15142;48.888;9.134;2022-12-26T10:20:20;98311.84;;;10.43
6550;BMP280;15142;48.888;9.134;2022-12-26T10:23:08;98310.81;;;10.39
6550;BMP280;15142;48.888;9.134;2022-12-26T10:25:42;98317.97;;;10.37
6550;BMP280;15142;48.888;9.134;2022-12-26T10:28:16;98313.88;;;10.41
6550;BMP280;15142;48.888;9.134;2022-12-26T10:30:44;98314.38;;;10.43
6550;BMP280;15142;48.888;9.134;2022-12-26T10:33:17;98317.41;;;10.45
6550;BMP280;15142;48.888;9.134;2022-12-26T10:35:45;98323.84;;;10.43
6550;BMP280;15142;48.888;9.134;2022-12-26T10:38:15;98323.03;;;10.42
6550;BMP280;15142;48.888;9.134;2022-12-26T10:40:48;98310.28;;;10.42
6550;BMP280;15142;48.888;9.134;2022-12-26T10:43:24;98335.81;;;10.42
6550;BMP280;15142;48.888;9.134;2022-12-26T10:48:45;98334.50;;;10.45
6550;BMP280;15142;48.888;9.134;2022-12-26T10:51:12;98336.31;;;10.44
6550;BMP280;15142;48.888;9.134;2022-12-26T10:53:42;98336.53;;;10.48
6550;BMP280;15142;48.888;9.134;2022-12-26T10:56:09;98346.00;;;10.47
6550;BMP280;15142;48.888;9.134;2022-12-26T10:58:37;98348.03;;;10.45
6550;BMP280;15142;48.888;9.134;2022-12-26T11:01:29;98349.09;;;10.39
6550;BMP280;15142;48.888;9.134;2022-12-26T11:04:00;98339.13;;;10.38
6550;BMP280;15142;48.888;9.134;2022-12-26T11:06:30;98317.47;;;10.35
6550;BMP280;15142;48.888;9.134;2022-12-26T11:08:58;98320.53;;;10.32
6550;BMP280;15142;48.888;9.134;2022-12-26T11:11:26;98320.81;;;10.31
6550;BMP280;15142;48.888;9.134;2022-12-26T11:14:25;98319.00;;;10.31
6550;BMP280;15142;48.888;9.134;2022-12-26T11:16:53;98314.44;;;10.28
6550;BMP280;15142;48.888;9.134;2022-12-26T11:19:27;98302.72;;;10.27
6550;BMP280;15142;48.888;9.134;2022-12-26T11:22:13;98291.47;;;10.28
6550;BMP280;15142;48.888;9.134;2022-12-26T11:24:41;98287.66;;;10.26
6550;BMP280;15142;48.888;9.134;2022-12-26T11:27:17;98281.56;;;10.27
6550;BMP280;15142;48.888;9.134;2022-12-26T11:29:44;98273.13;;;10.26
6550;BMP280;15142;48.888;9.134;2022-12-26T11:32:17;98276.16;;;10.28
6550;BMP280;15142;48.888;9.134;2022-12-26T11:34:47;98289.41;;;10.30
6550;BMP280;15142;48.888;9.134;2022-12-26T11:37:22;98311.34;;;10.31
6550;BMP280;15142;48.888;9.134;2022-12-26T11:39:51;98297.56;;;10.32
6550;BMP280;15142;48.888;9.134;2022-12-26T11:42:19;98295.53;;;10.34
6550;BMP280;15142;48.888;9.134;2022-12-26T11:44:49;98307.97;;;10.46
6550;BMP280;15142;48.888;9.134;2022-12-26T11:47:19;98319.41;;;10.53
6550;BMP280;15142;48.888;9.134;2022-12-26T11:49:53;98318.38;;;10.59
6550;BMP280;15142;48.888;9.134;2022-12-26T11:52:34;98303.56;;;10.61
6550;BMP280;15142;48.888;9.134;2022-12-26T11:55:23;98292.25;;;10.72
6550;BMP280;15142;48.888;9.134;2022-12-26T11:57:55;98295.56;;;10.72
6550;BMP280;15142;48.888;9.134;2022-12-26T12:00:23;98302.44;;;10.77
6550;BMP280;15142;48.888;9.134;2022-12-26T12:02:50;98295.78;;;10.80
6550;BMP280;15142;48.888;9.134;2022-12-26T12:05:29;98282.53;;;10.78
6550;BMP280;15142;48.888;9.134;2022-12-26T12:08:14;98267.88;;;10.84
6550;BMP280;15142;48.888;9.134;2022-12-26T12:10:53;98268.84;;;10.98
6550;BMP280;15142;48.888;9.134;2022-12-26T12:13:44;98277.94;;;11.08
6550;BMP280;15142;48.888;9.134;2022-12-26T12:16:29;98279.97;;;11.11
6550;BMP280;15142;48.888;9.134;2022-12-26T12:19:04;98284.31;;;11.06
6550;BMP280;15142;48.888;9.134;2022-12-26T12:21:42;98287.91;;;11.05
6550;BMP280;15142;48.888;9.134;2022-12-26T12:24:25;98281.00;;;11.06
6550;BMP280;15142;48.888;9.134;2022-12-26T12:27:01;98286.09;;;11.06
6550;BMP280;15142;48.888;9.134;2022-12-26T12:32:28;98277.41;;;11.11
6550;BMP280;15142;48.888;9.134;2022-12-26T12:35:12;98296.63;;;11.04
6550;BMP280;15142;48.888;9.134;2022-12-26T12:38:04;98295.09;;;10.98
6550;BMP280;15142;48.888;9.134;2022-12-26T12:40:37;98281.28;;;11.04
6550;BMP280;15142;48.888;9.134;2022-12-26T12:43:13;98280.28;;;11.00
6550;BMP280;15142;48.888;9.134;2022-12-26T12:45:45;98280.41;;;10.85
6550;BMP280;15142;48.888;9.134;2022-12-26T12:48:30;98277.41;;;10.78
6550;BMP280;15142;48.888;9.134;2022-12-26T12:51:06;98281.47;;;10.79
6550;BMP280;15142;48.888;9.134;2022-12-26T12:54:14;98276.84;;;10.86
6550;BMP280;15142;48.888;9.134;2022-12-26T12:56:49;98271.69;;;10.91
6550;BMP280;15142;48.888;9.134;2022-12-26T12:59:24;98269.63;;;10.93
6550;BMP280;15142;48.888;9.134;2022-12-26T13:02:04;98265.09;;;10.90
6550;BMP280;15142;48.888;9.134;2022-12-26T13:04:37;98281.34;;;10.94
6550;BMP280;15142;48.888;9.134;2022-12-26T13:07:11;98273.25;;;10.87
6550;BMP280;15142;48.888;9.134;2022-12-26T13:09:45;98272.00;;;10.85
6550;BMP280;15142;48.888;9.134;2022-12-26T13:12:16;98269.19;;;10.86
6550;BMP280;15142;48.888;9.134;2022-12-26T13:14:47;98276.78;;;10.91
6550;BMP280;15142;48.888;9.134;2022-12-26T13:17:18;98274.00;;;10.88
6550;BMP280;15142;48.888;9.134;2022-12-26T13:19:50;98269.19;;;10.86
6550;BMP280;15142;48.888;9.134;2022-12-26T13:22:24;98266.53;;;10.96
6550;BMP280;15142;48.888;9.134;2022-12-26T13:24:55;98254.06;;;10.95
6550;BMP280;15142;48.888;9.134;2022-12-26T13:27:25;98242.03;;;10.95
6550;BMP280;15142;48.888;9.134;2022-12-26T13:29:52;98244.50;;;11.05
6550;BMP280;15142;48.888;9.134;2022-12-26T13:32:21;98252.44;;;11.04
6550;BMP280;15142;48.888;9.134;2022-12-26T13:34:49;98251.69;;;11.03
6550;BMP280;15142;48.888;9.134;2022-12-26T13:37:52;98254.44;;;11.07
6550;BMP280;15142;48.888;9.134;2022-12-26T13:40:23;98259.03;;;11.09
6550;BMP280;15142;48.888;9.134;2022-12-26T13:42:54;98253.91;;;11.09
6550;BMP280;15142;48.888;9.134;2022-12-26T13:45:52;98246.50;;;11.08
6550;BMP280;15142;48.888;9.134;2022-12-26T13:51:47;98238.50;;;11.19
6550;BMP280;15142;48.888;9.134;2022-12-26T13:54:15;98251.00;;;11.21
6550;BMP280;15142;48.888;9.134;2022-12-26T13:57:20;98259.66;;;11.20
6550;BMP280;15142;48.888;9.134;2022-12-26T14:00:16;98251.00;;;11.21
6550;BMP280;15142;48.888;9.134;2022-12-26T14:06:03;98251.53;;;11.18
6550;BMP280;15142;48.888;9.134;2022-12-26T14:08:39;98253.34;;;11.17
6550;BMP280;15142;48.888;9.134;2022-12-26T14:11:18;98252.31;;;11.18
6550;BMP280;15142;48.888;9.134;2022-12-26T14:13:58;98253.34;;;11.17
6550;BMP280;15142;48.888;9.134;2022-12-26T14:16:30;98245.41;;;11.19
6550;BMP280;15142;48.888;9.134;2022-12-26T14:19:05;98250.25;;;11.20
6550;BMP280;15142;48.888;9.134;2022-12-26T14:21:45;98247.97;;;11.19
6550;BMP280;15142;48.888;9.134;2022-12-26T14:24:22;98251.75;;;11.21
6550;BMP280;15142;48.888;9.134;2022-12-26T14:26:54;98240.78;;;11.21
6550;BMP280;15142;48.888;9.134;2022-12-26T14:29:30;98247.97;;;11.19
6550;BMP280;15142;48.888;9.134;2022-12-26T14:32:09;98237.00;;;11.18
6550;BMP280;15142;48.888;9.134;2022-12-26T14:34:54;98234.19;;;11.15
6550;BMP280;15142;48.888;9.134;2022-12-26T14:37:29;98248.03;;;11.09
6550;BMP280;15142;48.888;9.134;2022-12-26T14:40:06;98234.56;;;11.04
6550;BMP280;15142;48.888;9.134;2022-12-26T14:45:45;98241.28;;;10.95
6550;BMP280;15142;48.888;9.134;2022-12-26T14:51:28;98252.25;;;10.95
6550;BMP280;15142;48.888;9.134;2022-12-26T14:54:16;98241.78;;;10.97
6550;BMP280;15142;48.888;9.134;2022-12-26T14:56:47;98240.19;;;11.01
6550;BMP280;15142;48.888;9.134;2022-12-26T14:59:27;98229.50;;;10.99
6550;BMP280;15142;48.888;9.134;2022-12-26T15:02:08;98230.03;;;10.96
6550;BMP280;15142;48.888;9.134;2022-12-26T15:04:47;98208.91;;;10.90
6550;BMP280;15142;48.888;9.134;2022-12-26T15:10:27;98216.06;;;10.88
6550;BMP280;15142;48.888;9.134;2022-12-26T15:13:16;98223.97;;;10.87
6550;BMP280;15142;48.888;9.134;2022-12-26T15:16:00;98217.16;;;10.82
6550;BMP280;15142;48.888;9.134;2022-12-26T15:18:56;98227.34;;;10.82
6550;BMP280;15142;48.888;9.134;2022-12-26T15:21:42;98221.25;;;10.78
6550;BMP280;15142;48.888;9.134;2022-12-26T15:24:28;98219.69;;;10.77